Ellipsis — WDE4581 — position and weather

sailwx.info

Track history (hours):
 
Tides and Currents Weather Stations Pressure Air Temp Water Temp Dewpoint Dewpoint Depression Visibility Wind Speed Wind Dir Waves Ship Positions

Ellipsis

Owner: Gulledge, Carl L, Redmond, WA. More information available from US FCC via Universal Licensing System and Coast Guard Vessel Documentation Center.

Last reported at 2017-May-08 19:35 UTC. Time now 2017-May-25 05:13 UTC.
Position N 51°48' W 127°55'.
Warning: this ship's position is 16 days out of date.

Length 19 m.

Type: Pleasure craft. MMSI: 367355160.

Date/timePositionNaut miles runAvg speedWind from/ knotsBaromVisibWave heightAir tempDewpointWater temp
2017-May-08 19:35N 51°48' W 127°55'1 8.8
2017-May-08 19:30N 51°48' W 127°55'4 8.6
2017-May-08 19:00N 51°43' W 127°54'5 9.1
2017-May-08 18:30N 51°39' W 127°53'5 9.2
2017-May-08 18:00N 51°35' W 127°51'4 8.6
2017-May-08 17:30N 51°31' W 127°47'2 0.4
2017-May-08 11:38N 51°30' W 127°44'0 0.0
2017-May-08 11:26N 51°30' W 127°44'0 0.0
2017-May-08 10:52N 51°30' W 127°44'0 0.0
2017-May-08 10:22N 51°30' W 127°44'0 0.0
2017-May-08 09:58N 51°30' W 127°44'0 0.0
2017-May-08 07:58N 51°30' W 127°44'0 0.0
2017-May-08 07:16N 51°30' W 127°44'0 0.0
2017-May-08 06:52N 51°30' W 127°44'0 0.0
2017-May-08 06:28N 51°30' W 127°44'0 0.0
2017-May-08 05:04N 51°30' W 127°44'0 0.0
2017-May-08 04:40N 51°30' W 127°44'0 0.0
2017-May-08 04:22N 51°30' W 127°44'0 0.0
2017-May-08 03:58N 51°30' W 127°44'0 0.0
2017-May-08 03:28N 51°30' W 127°44'0 0.0
2017-May-08 02:46N 51°30' W 127°44'0 0.0
2017-May-07 19:40N 51°30' W 127°44'0 0.0
2017-May-07 19:22N 51°30' W 127°44'1 0.4
2017-May-07 16:10N 51°29' W 127°46'1 5.1
2017-May-07 16:00N 51°29' W 127°47'23 7.8
2017-May-07 13:03N 51°06' W 127°42'2 9.2
2017-May-07 12:49N 51°05' W 127°40'3 8.4
2017-May-07 12:30N 51°03' W 127°36'2 0.3
2017-May-07 07:25N 51°03' W 127°34'0 0.0
2017-May-07 06:55N 51°03' W 127°34'0 0.0
2017-May-06 21:26N 51°03' W 127°34'2 3.5
2017-May-06 20:59N 51°01' W 127°33'4 8.0
2017-May-06 20:30N 50°58' W 127°30'4 8.4
2017-May-06 19:59N 50°55' W 127°25'4 8.4
2017-May-06 19:30N 50°51' W 127°22'  
2017-May-03 15:13N 50°16' W 125°22'3 0.2
2017-May-02 18:08N 50°12' W 125°22'1 8.6
2017-May-02 17:59N 50°11' W 125°22'4 7.8
2017-May-02 17:30N 50°07' W 125°20'4 7.2
2017-May-02 17:00N 50°05' W 125°16'2 1.2
2017-May-02 15:39N 50°05' W 125°13'0 0.0
2017-May-02 15:27N 50°05' W 125°13'0 0.0
2017-May-02 15:00N 50°05' W 125°13'0 0.0
2017-May-02 14:30N 50°05' W 125°13'0 0.0
2017-May-02 13:27N 50°05' W 125°13'0 0.0
2017-May-02 13:00N 50°05' W 125°13'0 0.0
2017-May-02 12:27N 50°05' W 125°13'0 0.0
2017-May-02 12:00N 50°05' W 125°13'0 0.0
2017-May-02 11:24N 50°05' W 125°13'0 0.0
2017-May-02 10:30N 50°05' W 125°13'0 0.0
2017-May-02 09:48N 50°05' W 125°13'0 0.0
2017-May-02 08:33N 50°05' W 125°13'0 0.0
2017-May-02 08:18N 50°05' W 125°13'0 0.0
2017-May-02 07:51N 50°05' W 125°13'0 0.0
2017-May-02 07:30N 50°05' W 125°13'0 0.0
2017-May-02 06:54N 50°05' W 125°13'0 0.0
2017-May-02 06:24N 50°05' W 125°13'0 0.0
2017-May-02 05:57N 50°05' W 125°13'0 0.0
2017-May-02 05:18N 50°05' W 125°13'0 0.0
2017-May-02 04:51N 50°05' W 125°13'0 0.0
2017-May-02 04:27N 50°05' W 125°13'0 0.0
2017-May-02 03:57N 50°05' W 125°13'0 0.0
2017-May-02 03:18N 50°05' W 125°13'0 0.0
2017-May-02 02:57N 50°05' W 125°13'0 0.1
2017-May-02 02:30N 50°05' W 125°14'1 3.0
2017-May-02 02:00N 50°03' W 125°14'2 2.9
2017-May-02 01:29N 50°02' W 125°13'1 2.1
2017-May-02 01:00N 50°01' W 125°13'3 4.2
2017-May-02 00:20N 49°59' W 125°10'6 8.9
2017-May-01 23:39N 49°54' W 125°04'3 9.0
2017-May-01 23:17N 49°52' W 125°00'3 8.8
2017-May-01 22:59N 49°50' W 124°57'4 8.4
2017-May-01 22:27N 49°47' W 124°53'87 8.1
2017-May-01 11:43N 48°44' W 123°21'2 7.4
2017-May-01 11:30N 48°42' W 123°21'3 6.4
2017-May-01 10:59N 48°39' W 123°23'0 0.0
2017-May-01 01:18N 48°39' W 123°24'0 0.0
2017-May-01 00:54N 48°39' W 123°24'0 0.0
2017-May-01 00:30N 48°39' W 123°24'0 0.0
2017-May-01 00:00N 48°39' W 123°24'0 0.0
2017-Apr-30 23:30N 48°39' W 123°24'0 0.0
2017-Apr-30 23:00N 48°39' W 123°24'0 0.0
2017-Apr-30 22:00N 48°39' W 123°24'0 0.0
2017-Apr-30 21:24N 48°39' W 123°24'0 0.0
2017-Apr-30 21:00N 48°39' W 123°24'0 0.0
2017-Apr-30 20:18N 48°39' W 123°24'1 4.2
2017-Apr-30 20:00N 48°39' W 123°22'  
Track history (hours):
 
Tides and Currents Weather Stations Pressure Air Temp Water Temp Dewpoint Dewpoint Depression Visibility Wind Speed Wind Dir Waves Ship Positions

Ellipsis

Owner: Gulledge, Carl L, Redmond, WA. More information available from US FCC via Universal Licensing System and Coast Guard Vessel Documentation Center.

Last reported at 2017-May-08 19:35 UTC. Time now 2017-May-25 05:13 UTC.
Position N 51°48' W 127°55'.
Warning: this ship's position is 16 days out of date.

Length 19 m.

Type: Pleasure craft. MMSI: 367355160.

Date/timePositionNaut miles runAvg speedWind from/ knotsBaromVisibWave heightAir tempDewpointWater temp
2017-May-08 19:35N 51°48' W 127°55'1 8.8
2017-May-08 19:30N 51°48' W 127°55'4 8.6
2017-May-08 19:00N 51°43' W 127°54'5 9.1
2017-May-08 18:30N 51°39' W 127°53'5 9.2
2017-May-08 18:00N 51°35' W 127°51'4 8.6
2017-May-08 17:30N 51°31' W 127°47'2 0.4
2017-May-08 11:38N 51°30' W 127°44'0 0.0
2017-May-08 11:26N 51°30' W 127°44'0 0.0
2017-May-08 10:52N 51°30' W 127°44'0 0.0
2017-May-08 10:22N 51°30' W 127°44'0 0.0
2017-May-08 09:58N 51°30' W 127°44'0 0.0
2017-May-08 07:58N 51°30' W 127°44'0 0.0
2017-May-08 07:16N 51°30' W 127°44'0 0.0
2017-May-08 06:52N 51°30' W 127°44'0 0.0
2017-May-08 06:28N 51°30' W 127°44'0 0.0
2017-May-08 05:04N 51°30' W 127°44'0 0.0
2017-May-08 04:40N 51°30' W 127°44'0 0.0
2017-May-08 04:22N 51°30' W 127°44'0 0.0
2017-May-08 03:58N 51°30' W 127°44'0 0.0
2017-May-08 03:28N 51°30' W 127°44'0 0.0
2017-May-08 02:46N 51°30' W 127°44'0 0.0
2017-May-07 19:40N 51°30' W 127°44'0 0.0
2017-May-07 19:22N 51°30' W 127°44'1 0.4
2017-May-07 16:10N 51°29' W 127°46'1 5.1
2017-May-07 16:00N 51°29' W 127°47'23 7.8
2017-May-07 13:03N 51°06' W 127°42'2 9.2
2017-May-07 12:49N 51°05' W 127°40'3 8.4
2017-May-07 12:30N 51°03' W 127°36'2 0.3
2017-May-07 07:25N 51°03' W 127°34'0 0.0
2017-May-07 06:55N 51°03' W 127°34'0 0.0
2017-May-06 21:26N 51°03' W 127°34'2 3.5
2017-May-06 20:59N 51°01' W 127°33'4 8.0
2017-May-06 20:30N 50°58' W 127°30'4 8.4
2017-May-06 19:59N 50°55' W 127°25'4 8.4
2017-May-06 19:30N 50°51' W 127°22'  
2017-May-03 15:13N 50°16' W 125°22'3 0.2
2017-May-02 18:08N 50°12' W 125°22'1 8.6
2017-May-02 17:59N 50°11' W 125°22'4 7.8
2017-May-02 17:30N 50°07' W 125°20'4 7.2
2017-May-02 17:00N 50°05' W 125°16'2 1.2
2017-May-02 15:39N 50°05' W 125°13'0 0.0
2017-May-02 15:27N 50°05' W 125°13'0 0.0
2017-May-02 15:00N 50°05' W 125°13'0 0.0
2017-May-02 14:30N 50°05' W 125°13'0 0.0
2017-May-02 13:27N 50°05' W 125°13'0 0.0
2017-May-02 13:00N 50°05' W 125°13'0 0.0
2017-May-02 12:27N 50°05' W 125°13'0 0.0
2017-May-02 12:00N 50°05' W 125°13'0 0.0
2017-May-02 11:24N 50°05' W 125°13'0 0.0
2017-May-02 10:30N 50°05' W 125°13'0 0.0
2017-May-02 09:48N 50°05' W 125°13'0 0.0
2017-May-02 08:33N 50°05' W 125°13'0 0.0
2017-May-02 08:18N 50°05' W 125°13'0 0.0
2017-May-02 07:51N 50°05' W 125°13'0 0.0
2017-May-02 07:30N 50°05' W 125°13'0 0.0
2017-May-02 06:54N 50°05' W 125°13'0 0.0
2017-May-02 06:24N 50°05' W 125°13'0 0.0
2017-May-02 05:57N 50°05' W 125°13'0 0.0
2017-May-02 05:18N 50°05' W 125°13'0 0.0
2017-May-02 04:51N 50°05' W 125°13'0 0.0
2017-May-02 04:27N 50°05' W 125°13'0 0.0
2017-May-02 03:57N 50°05' W 125°13'0 0.0
2017-May-02 03:18N 50°05' W 125°13'0 0.0
2017-May-02 02:57N 50°05' W 125°13'0 0.1
2017-May-02 02:30N 50°05' W 125°14'1 3.0
2017-May-02 02:00N 50°03' W 125°14'2 2.9
2017-May-02 01:29N 50°02' W 125°13'1 2.1
2017-May-02 01:00N 50°01' W 125°13'3 4.2
2017-May-02 00:20N 49°59' W 125°10'6 8.9
2017-May-01 23:39N 49°54' W 125°04'3 9.0
2017-May-01 23:17N 49°52' W 125°00'3 8.8
2017-May-01 22:59N 49°50' W 124°57'4 8.4
2017-May-01 22:27N 49°47' W 124°53'87 8.1
2017-May-01 11:43N 48°44' W 123°21'2 7.4
2017-May-01 11:30N 48°42' W 123°21'3 6.4
2017-May-01 10:59N 48°39' W 123°23'0 0.0
2017-May-01 01:18N 48°39' W 123°24'0 0.0
2017-May-01 00:54N 48°39' W 123°24'0 0.0
2017-May-01 00:30N 48°39' W 123°24'0 0.0
2017-May-01 00:00N 48°39' W 123°24'0 0.0
2017-Apr-30 23:30N 48°39' W 123°24'0 0.0
2017-Apr-30 23:00N 48°39' W 123°24'0 0.0
2017-Apr-30 22:00N 48°39' W 123°24'0 0.0
2017-Apr-30 21:24N 48°39' W 123°24'0 0.0
2017-Apr-30 21:00N 48°39' W 123°24'0 0.0
2017-Apr-30 20:18N 48°39' W 123°24'1 4.2
2017-Apr-30 20:00N 48°39' W 123°22'  

Dump ship's entire track history